createdAt,value
2023-05-25T00:02:16.103Z,8.90
2023-05-25T00:04:50.795Z,12.57
2023-05-25T00:07:23.410Z,9.73
2023-05-25T00:09:56.065Z,11.03
2023-05-25T00:12:29.852Z,12.37
2023-05-25T00:15:02.445Z,10.13
2023-05-25T00:17:37.332Z,8.97
2023-05-25T00:20:13.805Z,12.83
2023-05-25T00:22:46.663Z,14.67
2023-05-25T00:25:21.933Z,12.77
2023-05-25T00:27:54.524Z,11.50
2023-05-25T00:30:27.287Z,7.30
2023-05-25T00:33:01.636Z,10.20
2023-05-25T00:35:35.645Z,7.87
2023-05-25T00:38:13.166Z,8.93
2023-05-25T00:40:46.316Z,10.93
2023-05-25T00:43:19.859Z,12.10
2023-05-25T00:45:52.549Z,13.07
2023-05-25T00:48:26.586Z,8.97
2023-05-25T00:51:00.995Z,9.30
2023-05-25T00:53:34.131Z,10.97
2023-05-25T00:56:10.909Z,12.57
2023-05-25T00:58:44.006Z,8.70
2023-05-25T01:01:17.264Z,8.47
2023-05-25T01:03:53.888Z,10.53
2023-05-25T01:06:32.117Z,11.03
2023-05-25T01:09:05.982Z,14.70
2023-05-25T01:11:40.881Z,8.67
2023-05-25T01:14:13.900Z,9.50
2023-05-25T01:16:47.022Z,10.50
2023-05-25T01:19:19.801Z,7.40
2023-05-25T01:22:01.084Z,9.93
2023-05-25T01:24:41.003Z,10.87
2023-05-25T01:27:15.646Z,12.47
2023-05-25T01:29:49.327Z,9.33
2023-05-25T01:32:22.755Z,12.77
2023-05-25T01:34:56.618Z,12.17
2023-05-25T01:37:31.507Z,11.27
2023-05-25T01:40:05.503Z,12.97
2023-05-25T01:42:38.212Z,9.80
2023-05-25T01:45:11.770Z,11.37
2023-05-25T01:47:49.275Z,11.57
2023-05-25T01:50:25.308Z,9.07
2023-05-25T01:53:05.134Z,10.27
2023-05-25T01:55:41.172Z,12.13
2023-05-25T01:58:14.688Z,7.43
2023-05-25T02:00:49.725Z,13.90
2023-05-25T02:03:22.532Z,10.23
2023-05-25T02:05:57.898Z,12.57
2023-05-25T02:08:34.272Z,8.30
2023-05-25T02:11:06.998Z,9.90
2023-05-25T02:13:42.402Z,9.27
2023-05-25T02:16:16.951Z,12.07
2023-05-25T02:18:50.948Z,14.00
2023-05-25T02:21:23.559Z,10.70
2023-05-25T02:24:00.571Z,12.30
2023-05-25T02:26:33.347Z,11.60
2023-05-25T02:29:06.658Z,7.80
2023-05-25T02:31:40.054Z,8.67
2023-05-25T02:34:16.340Z,10.67
2023-05-25T02:36:49.128Z,14.00
2023-05-25T02:39:23.163Z,12.87
2023-05-25T02:41:55.746Z,13.77
2023-05-25T02:44:28.390Z,8.77
2023-05-25T02:47:01.228Z,10.47
2023-05-25T02:49:34.391Z,15.27
2023-05-25T02:52:07.063Z,12.17
2023-05-25T02:54:41.680Z,12.50
2023-05-25T02:57:14.260Z,11.47
2023-05-25T02:59:46.896Z,8.37
2023-05-25T03:02:21.189Z,11.03
2023-05-25T03:04:54.806Z,11.53
2023-05-25T03:07:27.598Z,13.17
2023-05-25T03:10:01.590Z,13.33
2023-05-25T03:12:34.458Z,10.73
2023-05-25T03:15:07.454Z,13.00
2023-05-25T03:17:40.270Z,13.03
2023-05-25T03:20:15.519Z,11.63
2023-05-25T03:22:48.267Z,11.70
2023-05-25T03:25:22.434Z,11.20
2023-05-25T03:27:55.501Z,12.30
2023-05-25T03:30:28.185Z,10.20
2023-05-25T03:33:00.971Z,11.33
2023-05-25T03:35:33.801Z,11.30
2023-05-25T03:38:07.804Z,10.30
2023-05-25T03:40:41.721Z,10.97
2023-05-25T03:43:14.371Z,14.10
2023-05-25T03:45:47.277Z,15.63
2023-05-25T03:48:20.204Z,13.67
2023-05-25T03:50:52.896Z,13.40
2023-05-25T03:53:25.617Z,10.10
2023-05-25T03:56:00.190Z,10.40
2023-05-25T03:58:32.868Z,11.80
2023-05-25T04:01:05.785Z,10.10
2023-05-25T04:03:41.428Z,14.87
2023-05-25T04:06:14.246Z,11.00
2023-05-25T04:08:47.931Z,14.77
2023-05-25T04:11:22.676Z,11.87
2023-05-25T04:13:55.438Z,13.60
2023-05-25T04:16:28.144Z,11.03
2023-05-25T04:19:01.020Z,14.93
2023-05-25T04:21:33.614Z,11.37
2023-05-25T04:24:07.801Z,12.07
2023-05-25T04:26:41.839Z,9.40
2023-05-25T04:29:14.654Z,19.13
2023-05-25T04:31:47.680Z,13.80
2023-05-25T04:34:22.237Z,12.63
2023-05-25T04:36:55.077Z,13.10
2023-05-25T04:39:27.840Z,12.63
2023-05-25T04:42:04.736Z,14.20
2023-05-25T04:44:37.711Z,14.07
2023-05-25T04:47:10.732Z,14.60
2023-05-25T04:49:43.581Z,13.80
2023-05-25T04:52:16.173Z,11.83
2023-05-25T04:54:48.839Z,12.97
2023-05-25T04:57:22.914Z,15.37
2023-05-25T04:59:55.645Z,17.53
2023-05-25T05:02:28.234Z,15.43
2023-05-25T05:05:00.893Z,14.37
2023-05-25T05:07:34.401Z,13.93
2023-05-25T05:10:07.745Z,17.70
2023-05-25T05:12:41.700Z,19.23
2023-05-25T05:15:17.446Z,17.90
2023-05-25T05:17:50.261Z,13.73
2023-05-25T05:20:23.017Z,18.60
2023-05-25T05:22:55.607Z,14.40
2023-05-25T05:25:28.291Z,21.03
2023-05-25T05:28:03.380Z,19.93
2023-05-25T05:30:36.380Z,20.73
2023-05-25T05:33:11.105Z,14.33
2023-05-25T05:35:43.989Z,19.83
2023-05-25T05:38:16.987Z,15.70
2023-05-25T05:40:50.732Z,21.53
2023-05-25T05:43:24.735Z,19.97
2023-05-25T05:45:57.384Z,15.30
2023-05-25T05:48:32.858Z,17.60
2023-05-25T05:51:06.025Z,17.60
2023-05-25T05:53:38.633Z,20.63
2023-05-25T05:56:17.842Z,15.73
2023-05-25T05:58:53.572Z,18.27
2023-05-25T06:01:26.540Z,18.10
2023-05-25T06:04:01.309Z,16.70
2023-05-25T06:06:35.069Z,17.00
2023-05-25T06:09:08.113Z,17.63
2023-05-25T06:11:40.948Z,14.07
2023-05-25T06:14:14.990Z,17.80
2023-05-25T06:16:47.734Z,21.70
2023-05-25T06:19:20.484Z,18.70
2023-05-25T06:21:53.066Z,12.30
2023-05-25T06:24:25.644Z,15.43
2023-05-25T06:26:58.199Z,18.77
2023-05-25T06:29:34.558Z,18.77
2023-05-25T06:32:07.488Z,12.90
2023-05-25T06:34:40.559Z,13.53
2023-05-25T06:37:14.820Z,18.43
2023-05-25T06:39:47.452Z,17.80
2023-05-25T06:42:20.376Z,18.30
2023-05-25T06:44:54.378Z,12.90
2023-05-25T06:50:00.723Z,16.43
2023-05-25T06:52:33.512Z,16.23
2023-05-25T06:55:07.413Z,15.17
2023-05-25T06:57:40.037Z,13.57
2023-05-25T07:00:16.453Z,14.80
2023-05-25T07:02:50.716Z,11.37
2023-05-25T07:05:23.465Z,16.07
2023-05-25T07:07:56.436Z,14.03
2023-05-25T07:10:29.242Z,17.70
2023-05-25T07:13:01.984Z,9.93
2023-05-25T07:15:36.934Z,13.97
2023-05-25T07:18:12.693Z,14.37
2023-05-25T07:20:45.781Z,11.13
2023-05-25T07:23:18.571Z,13.00
2023-05-25T07:25:52.429Z,10.33
2023-05-25T07:28:25.126Z,8.23
2023-05-25T07:30:59.318Z,12.43
2023-05-25T07:33:32.051Z,16.23
2023-05-25T07:36:05.150Z,12.70
2023-05-25T07:38:37.863Z,10.60
2023-05-25T07:41:14.650Z,12.47
2023-05-25T07:43:47.298Z,8.67
2023-05-25T07:46:25.283Z,8.97
2023-05-25T07:48:59.708Z,6.53
2023-05-25T07:51:32.790Z,13.93
2023-05-25T07:54:05.733Z,10.47
2023-05-25T07:56:38.615Z,10.77
2023-05-25T07:59:11.919Z,9.30
2023-05-25T08:01:46.011Z,9.83
2023-05-25T08:04:18.994Z,13.00
2023-05-25T08:06:51.802Z,10.63
2023-05-25T08:09:24.467Z,10.03
2023-05-25T08:12:12.668Z,11.13
2023-05-25T08:14:51.006Z,8.30
2023-05-25T08:17:26.745Z,10.23
2023-05-25T08:20:01.856Z,8.20
2023-05-25T08:22:36.402Z,5.93
2023-05-25T08:25:09.361Z,9.30
2023-05-25T08:27:42.046Z,8.07
2023-05-25T08:30:14.746Z,9.77
2023-05-25T08:32:49.003Z,6.90
2023-05-25T08:35:21.795Z,8.33
2023-05-25T08:37:54.528Z,7.30
2023-05-25T08:40:28.238Z,9.30
2023-05-25T08:43:01.101Z,7.30
2023-05-25T08:45:38.522Z,9.47
2023-05-25T08:48:26.937Z,7.63
2023-05-25T08:51:10.759Z,11.70
2023-05-25T08:53:44.580Z,12.17
2023-05-25T08:56:19.720Z,8.93
2023-05-25T08:58:54.855Z,6.27
2023-05-25T09:01:29.889Z,6.20
2023-05-25T09:04:07.185Z,8.83
2023-05-25T09:06:39.958Z,5.60
2023-05-25T09:09:12.546Z,9.13
2023-05-25T09:11:45.844Z,9.27
2023-05-25T09:14:18.652Z,11.70
2023-05-25T09:16:51.727Z,7.23
2023-05-25T09:19:25.920Z,7.97
2023-05-25T09:22:10.667Z,12.37
2023-05-25T09:24:48.216Z,9.30
2023-05-25T09:27:23.258Z,9.83
2023-05-25T09:30:00.079Z,7.07
2023-05-25T09:32:34.094Z,7.43
2023-05-25T09:35:11.884Z,9.87
2023-05-25T09:37:45.258Z,6.80
2023-05-25T09:40:19.607Z,11.10
2023-05-25T09:42:52.198Z,11.60
2023-05-25T09:45:32.148Z,10.27
2023-05-25T09:48:06.762Z,9.13
2023-05-25T09:50:40.840Z,6.87
2023-05-25T09:53:13.666Z,7.77
2023-05-25T09:55:53.709Z,9.83
2023-05-25T09:58:27.613Z,10.60
2023-05-25T10:03:33.359Z,8.57
2023-05-25T10:06:08.670Z,7.67
2023-05-25T10:08:41.720Z,13.00
2023-05-25T10:11:15.565Z,7.67
2023-05-25T10:13:48.805Z,8.10
2023-05-25T10:16:26.116Z,28.83
2023-05-25T10:19:00.899Z,11.00
2023-05-25T10:21:36.838Z,9.10
2023-05-25T10:24:17.056Z,9.67
2023-05-25T10:26:51.646Z,10.27
2023-05-25T10:29:26.429Z,9.80
2023-05-25T10:31:59.662Z,8.60
2023-05-25T10:34:32.725Z,8.80
2023-05-25T10:37:07.813Z,10.20
2023-05-25T10:39:42.546Z,8.50
2023-05-25T10:42:15.205Z,7.60
2023-05-25T10:44:48.143Z,5.03
2023-05-25T10:47:21.487Z,8.50
2023-05-25T10:49:58.097Z,6.97
2023-05-25T10:52:32.524Z,8.67
2023-05-25T10:55:05.590Z,7.97
2023-05-25T10:57:40.948Z,7.10
2023-05-25T11:00:15.246Z,10.30
2023-05-25T11:02:53.709Z,6.10
2023-05-25T11:05:52.459Z,7.20
2023-05-25T11:08:47.367Z,8.07
2023-05-25T11:11:22.390Z,8.93
2023-05-25T11:13:56.101Z,7.57
2023-05-25T11:16:36.204Z,7.40
2023-05-25T11:19:15.440Z,6.50
2023-05-25T11:21:49.379Z,5.80
2023-05-25T11:24:23.395Z,9.47
2023-05-25T11:26:59.875Z,12.53
2023-05-25T11:29:33.237Z,6.03
2023-05-25T11:32:06.216Z,7.53
2023-05-25T11:34:38.936Z,6.83
2023-05-25T11:37:12.274Z,6.63
2023-05-25T11:39:51.977Z,7.47
2023-05-25T11:42:25.342Z,6.47
2023-05-25T11:44:58.409Z,9.80
2023-05-25T11:47:32.728Z,8.17
2023-05-25T11:50:07.568Z,10.03
2023-05-25T11:52:41.884Z,7.47
2023-05-25T11:55:16.116Z,7.77
2023-05-25T11:57:56.098Z,5.70
2023-05-25T12:00:36.727Z,7.60
2023-05-25T12:03:10.668Z,7.37
2023-05-25T12:05:43.538Z,5.43
2023-05-25T12:08:18.226Z,8.10
2023-05-25T12:10:52.824Z,8.37
2023-05-25T12:13:26.344Z,11.57
2023-05-25T12:16:00.421Z,10.73
2023-05-25T12:18:33.068Z,11.07
2023-05-25T12:21:10.404Z,11.87
2023-05-25T12:23:43.112Z,10.77
2023-05-25T12:26:17.944Z,10.47
2023-05-25T12:29:00.650Z,10.57
2023-05-25T12:31:34.201Z,14.43
2023-05-25T12:34:10.400Z,12.97
2023-05-25T12:36:44.409Z,13.83
2023-05-25T12:39:17.724Z,16.37
2023-05-25T12:41:54.616Z,13.23
2023-05-25T12:44:31.279Z,13.90
2023-05-25T12:47:16.321Z,10.43
2023-05-25T12:49:51.277Z,11.53
2023-05-25T12:52:33.865Z,10.67
2023-05-25T12:55:25.657Z,11.30
2023-05-25T12:58:00.289Z,9.63
2023-05-25T13:00:33.509Z,7.60
2023-05-25T13:03:08.467Z,8.77
2023-05-25T13:05:41.285Z,7.73
2023-05-25T13:08:14.042Z,9.27
2023-05-25T13:10:51.508Z,8.17
2023-05-25T13:13:25.584Z,9.90
2023-05-25T13:16:01.050Z,6.83
2023-05-25T13:18:33.568Z,9.03
2023-05-25T13:21:10.069Z,7.77
2023-05-25T13:23:42.780Z,8.60
2023-05-25T13:26:17.676Z,9.27
2023-05-25T13:28:51.632Z,8.17
2023-05-25T13:31:29.572Z,8.13
2023-05-25T13:34:03.056Z,7.77
2023-05-25T13:36:35.817Z,9.13
2023-05-25T13:39:10.803Z,9.23
2023-05-25T13:41:43.924Z,8.20
2023-05-25T13:44:18.015Z,7.77
2023-05-25T13:46:51.712Z,9.10
2023-05-25T13:49:26.381Z,8.77
2023-05-25T13:51:59.128Z,8.80
2023-05-25T13:54:31.812Z,9.27
2023-05-25T13:57:04.740Z,10.33
2023-05-25T13:59:38.992Z,8.23
2023-05-25T14:02:11.872Z,9.90
2023-05-25T14:04:44.623Z,11.80
2023-05-25T14:07:20.105Z,10.97
2023-05-25T14:09:52.702Z,6.90
2023-05-25T14:12:25.357Z,9.63
2023-05-25T14:15:00.490Z,8.40
2023-05-25T14:17:33.246Z,9.33
2023-05-25T14:20:09.725Z,9.10
2023-05-25T14:22:42.435Z,9.10
2023-05-25T14:25:15.067Z,7.83
2023-05-25T14:27:47.909Z,9.67
2023-05-25T14:30:23.271Z,9.37
2023-05-25T14:32:55.982Z,8.33
2023-05-25T14:35:28.713Z,8.80
2023-05-25T14:38:01.718Z,6.57
2023-05-25T14:40:34.341Z,11.53
2023-05-25T14:43:06.959Z,6.80
2023-05-25T14:45:42.152Z,7.50
2023-05-25T14:48:22.938Z,6.30
2023-05-25T14:50:55.697Z,9.73
2023-05-25T14:53:29.070Z,6.57
2023-05-25T14:56:03.636Z,7.47
2023-05-25T14:58:36.279Z,11.07
2023-05-25T15:01:11.784Z,5.47
2023-05-25T15:03:44.604Z,7.67
2023-05-25T15:06:17.252Z,7.40
2023-05-25T15:08:49.915Z,6.37
2023-05-25T15:11:24.809Z,6.63
2023-05-25T15:13:57.839Z,8.13
2023-05-25T15:16:31.987Z,7.57
2023-05-25T15:19:05.011Z,7.87
2023-05-25T15:21:37.982Z,5.53
2023-05-25T15:24:15.785Z,7.93
2023-05-25T15:26:49.203Z,8.10
2023-05-25T15:29:21.873Z,7.30
2023-05-25T15:31:55.909Z,8.07
2023-05-25T15:34:28.673Z,6.67
2023-05-25T15:37:02.264Z,8.13
2023-05-25T15:39:35.008Z,9.30
2023-05-25T15:42:08.012Z,7.77
2023-05-25T15:44:41.105Z,6.97
2023-05-25T15:47:15.143Z,7.43
2023-05-25T15:49:48.046Z,5.17
2023-05-25T15:52:20.732Z,9.03
2023-05-25T15:54:53.336Z,7.70
2023-05-25T15:57:26.041Z,8.17
2023-05-25T15:59:58.762Z,7.67
2023-05-25T16:02:33.105Z,7.13
2023-05-25T16:05:09.689Z,9.43
2023-05-25T16:07:42.419Z,8.50
2023-05-25T16:10:15.126Z,7.77
2023-05-25T16:12:47.719Z,7.77
2023-05-25T16:15:20.651Z,6.83
2023-05-25T16:17:57.035Z,8.47
2023-05-25T16:20:29.694Z,6.77
2023-05-25T16:23:02.533Z,9.83
2023-05-25T16:25:38.180Z,6.87
2023-05-25T16:28:10.891Z,6.77
2023-05-25T16:30:43.742Z,8.20
2023-05-25T16:33:17.652Z,7.67
2023-05-25T16:35:50.314Z,8.73
2023-05-25T16:38:23.064Z,8.17
2023-05-25T16:40:56.111Z,6.60
2023-05-25T16:43:28.717Z,8.07
2023-05-25T16:46:01.386Z,6.27
2023-05-25T16:48:35.783Z,7.20
2023-05-25T16:51:14.852Z,5.63
2023-05-25T16:53:47.492Z,6.43
2023-05-25T16:56:21.503Z,8.43
2023-05-25T16:58:54.284Z,5.53
2023-05-25T17:01:27.089Z,7.77
2023-05-25T17:04:01.468Z,6.27
2023-05-25T17:06:34.380Z,10.80
2023-05-25T17:09:09.469Z,6.43
2023-05-25T17:11:42.066Z,7.67
2023-05-25T17:14:14.766Z,8.03
2023-05-25T17:16:47.446Z,9.57
2023-05-25T17:19:21.757Z,7.03
2023-05-25T17:21:54.569Z,11.63
2023-05-25T17:24:27.151Z,5.33
2023-05-25T17:26:59.745Z,6.27
2023-05-25T17:29:32.656Z,8.70
2023-05-25T17:32:05.684Z,8.90
2023-05-25T17:34:42.162Z,8.43
2023-05-25T17:37:14.887Z,9.57
2023-05-25T17:39:47.595Z,7.77
2023-05-25T17:42:20.369Z,7.50
2023-05-25T17:44:55.883Z,9.33
2023-05-25T17:47:28.569Z,7.47
2023-05-25T17:50:02.670Z,8.17
2023-05-25T17:52:36.460Z,6.27
2023-05-25T17:55:09.407Z,6.07
2023-05-25T17:57:42.298Z,8.03
2023-05-25T18:00:15.854Z,10.10
2023-05-25T18:02:51.941Z,8.63
2023-05-25T18:05:30.263Z,7.10
2023-05-25T18:08:04.343Z,6.37
2023-05-25T18:10:37.019Z,8.80
2023-05-25T18:13:09.733Z,7.93
2023-05-25T18:15:42.491Z,5.77
2023-05-25T18:18:16.581Z,7.37
2023-05-25T18:20:50.670Z,7.27
2023-05-25T18:23:23.381Z,6.93
2023-05-25T18:25:55.929Z,8.77
2023-05-25T18:28:31.063Z,7.20
2023-05-25T18:31:04.157Z,6.87
2023-05-25T18:33:37.017Z,9.13
2023-05-25T18:36:11.152Z,6.03
2023-05-25T18:38:43.919Z,7.10
2023-05-25T18:41:17.360Z,5.90
2023-05-25T18:43:51.546Z,11.10
2023-05-25T18:46:26.950Z,10.10
2023-05-25T18:48:59.850Z,6.30
2023-05-25T18:51:33.997Z,7.27
2023-05-25T18:54:07.000Z,7.50
2023-05-25T18:56:40.303Z,7.77
2023-05-25T18:59:16.015Z,6.53
2023-05-25T19:01:49.103Z,6.27
2023-05-25T19:04:21.827Z,8.20
2023-05-25T19:06:55.878Z,7.07
2023-05-25T19:09:28.694Z,7.40
2023-05-25T19:12:04.636Z,8.70
2023-05-25T19:14:38.944Z,5.93
2023-05-25T19:17:11.646Z,6.10
2023-05-25T19:19:47.303Z,8.80
2023-05-25T19:22:21.444Z,8.23
2023-05-25T19:25:00.263Z,7.87
2023-05-25T19:27:33.793Z,8.33
2023-05-25T19:30:08.334Z,7.47
2023-05-25T19:32:40.939Z,7.50
2023-05-25T19:35:13.549Z,7.43
2023-05-25T19:37:47.603Z,7.83
2023-05-25T19:40:20.479Z,9.03
2023-05-25T19:42:53.093Z,10.27
2023-05-25T19:45:25.936Z,8.03
2023-05-25T19:47:58.614Z,6.43
2023-05-25T19:50:31.628Z,6.80
2023-05-25T19:53:05.804Z,6.30
2023-05-25T19:55:38.931Z,9.70
2023-05-25T19:58:11.948Z,8.03
2023-05-25T20:00:44.651Z,7.53
2023-05-25T20:03:20.801Z,6.10
2023-05-25T20:05:53.718Z,10.50
2023-05-25T20:08:28.049Z,11.27
2023-05-25T20:11:00.896Z,7.77
2023-05-25T20:13:33.501Z,9.17
2023-05-25T20:16:09.978Z,6.70
2023-05-25T20:18:43.335Z,12.67
2023-05-25T20:21:18.800Z,11.30
2023-05-25T20:23:55.380Z,10.30
2023-05-25T20:26:28.762Z,9.10
2023-05-25T20:29:01.451Z,12.70
2023-05-25T20:31:34.171Z,11.50
2023-05-25T20:34:07.275Z,10.57
2023-05-25T20:36:40.175Z,11.60
2023-05-25T20:39:14.259Z,11.13
2023-05-25T20:41:49.007Z,9.60
2023-05-25T20:44:21.922Z,10.07
2023-05-25T20:46:54.598Z,13.70
2023-05-25T20:49:30.556Z,10.27
2023-05-25T20:52:03.187Z,11.43
2023-05-25T20:54:41.653Z,10.50
2023-05-25T20:57:14.751Z,10.80
2023-05-25T20:59:48.727Z,12.70
2023-05-25T21:02:21.538Z,12.13
2023-05-25T21:04:54.188Z,11.13
2023-05-25T21:07:26.894Z,15.70
2023-05-25T21:10:01.267Z,11.30
2023-05-25T21:12:33.919Z,13.60
2023-05-25T21:15:07.213Z,14.17
2023-05-25T21:17:39.856Z,11.83
2023-05-25T21:20:12.525Z,11.17
2023-05-25T21:22:47.853Z,12.90
2023-05-25T21:25:22.024Z,11.60
2023-05-25T21:27:56.825Z,9.27
2023-05-25T21:30:29.838Z,10.13
2023-05-25T21:33:02.549Z,11.77
2023-05-25T21:35:35.805Z,13.23
2023-05-25T21:38:08.937Z,14.33
2023-05-25T21:40:42.909Z,13.40
2023-05-25T21:43:15.488Z,10.43
2023-05-25T21:45:48.337Z,13.60
2023-05-25T21:48:21.156Z,11.60
2023-05-25T21:50:53.817Z,10.13
2023-05-25T21:53:26.385Z,12.87
2023-05-25T21:56:06.459Z,14.83
2023-05-25T21:58:39.154Z,12.33
2023-05-25T22:01:12.022Z,16.07
2023-05-25T22:03:44.626Z,11.13
2023-05-25T22:06:17.380Z,11.43
2023-05-25T22:08:50.095Z,12.03
2023-05-25T22:11:24.604Z,11.60
2023-05-25T22:13:57.611Z,12.97
2023-05-25T22:16:32.684Z,11.30
2023-05-25T22:19:07.953Z,14.33
2023-05-25T22:21:40.636Z,12.83
2023-05-25T22:24:13.448Z,18.23
2023-05-25T22:26:47.498Z,13.93
2023-05-25T22:29:20.438Z,15.13
2023-05-25T22:31:52.954Z,14.20
2023-05-25T22:34:25.520Z,15.20
2023-05-25T22:36:58.101Z,11.43
2023-05-25T22:39:31.340Z,10.77
2023-05-25T22:42:08.252Z,19.00
2023-05-25T22:44:40.941Z,15.00
2023-05-25T22:47:13.639Z,17.30
2023-05-25T22:49:46.315Z,11.27
2023-05-25T22:52:18.960Z,12.07
2023-05-25T22:54:51.687Z,14.00
2023-05-25T22:57:28.587Z,7.07
2023-05-25T23:00:01.535Z,14.20
2023-05-25T23:02:34.260Z,14.83
2023-05-25T23:05:07.029Z,14.37
2023-05-25T23:07:45.668Z,12.83
2023-05-25T23:10:18.854Z,13.43
2023-05-25T23:12:54.627Z,14.83
2023-05-25T23:15:30.826Z,12.23
2023-05-25T23:18:05.472Z,20.97
2023-05-25T23:20:41.079Z,13.10
2023-05-25T23:23:13.849Z,12.23
2023-05-25T23:25:46.988Z,13.23
2023-05-25T23:28:21.742Z,13.10
2023-05-25T23:30:54.578Z,14.13
2023-05-25T23:33:31.610Z,13.30
2023-05-25T23:36:04.321Z,18.83
2023-05-25T23:38:37.129Z,13.33
2023-05-25T23:41:11.721Z,17.40
2023-05-25T23:43:46.553Z,14.37
2023-05-25T23:46:19.283Z,12.17
2023-05-25T23:48:52.094Z,17.50
2023-05-25T23:51:26.823Z,22.37
2023-05-25T23:53:59.429Z,15.90
2023-05-25T23:56:32.697Z,12.93
2023-05-25T23:59:06.773Z,21.67
